Time;durP1;ratioP1;P1;durP2;ratioP2;P2;SDS_P1;SDS_P2;PMS_P1;PMS_P2;Temp;Humidity;BMP_temperature;BMP_pressure;BME280_temperature;BME280_humidity;BME280_pressure;Samples;Min_cycle;Max_cycle;Signal;HPM_P1;HPM_P2
2022/09/12 00:01:50;;;;;;;;;;;;;;;;;;5018541;28;1457;-74
2022/09/12 00:04:15;;;;;;;;;;;;;;;;;;5021936;28;1963;-74
2022/09/12 00:06:40;;;;;;;;;;;;;;;;;;5016613;28;1450;-74
2022/09/12 00:09:07;;;;;;;;;;;;;;;;;;5020072;28;1267;-74
2022/09/12 00:11:36;;;;;;;;;;;;;;;;;;5016861;28;1378;-75
2022/09/12 00:14:01;;;;;;;;;;;;;;;;;;5016547;28;1521;-74
2022/09/12 00:16:27;;;;;;;;;;;;;;;;;;5016812;28;1302;-74
2022/09/12 00:18:53;;;;;;;;;;;;;;;;;;5019905;28;1488;-74
2022/09/12 00:21:19;;;;;;;;;;;;;;;;;;5015451;28;1312;-75
2022/09/12 00:23:44;;;;;;;;;;;;;;;;;;5020097;28;1961;-74
2022/09/12 00:26:10;;;;;;;;;;;;;;;;;;5017359;28;1264;-74
2022/09/12 00:28:36;;;;;;;;;;;;;;;;;;5018578;28;1285;-74
2022/09/12 00:31:05;;;;;;;;;;;;;;;;;;5017548;28;1389;-74
2022/09/12 00:33:30;;;;;;;;;;;;;;;;;;5017114;28;1329;-74
2022/09/12 00:35:55;;;;;;;;;;;;;;;;;;5017715;28;1317;-74
2022/09/12 00:38:21;;;;;;;;;;;;;;;;;;5018974;28;1171;-74
2022/09/12 00:40:46;;;;;;;;;;;;;;;;;;5019472;28;1399;-75
2022/09/12 00:43:12;;;;;;;;;;;;;;;;;;5016286;28;1882;-74
2022/09/12 00:45:38;;;;;;;;;;;;;;;;;;5015908;28;1335;-74
2022/09/12 00:48:03;;;;;;;;;;;;;;;;;;5014803;28;1627;-74
2022/09/12 00:50:29;;;;;;;;;;;;;;;;;;5017032;28;1316;-75
2022/09/12 00:52:57;;;;;;;;;;;;;;;;;;5018963;28;1241;-75
2022/09/12 00:55:27;;;;;;;;;;;;;;;;;;5021756;28;1303;-75
2022/09/12 00:58:11;;;;;;;;;;;;;;;;;;5017073;28;1301;-75
2022/09/12 01:00:36;;;;;;;;;;;;;;;;;;5020073;28;1604;-74
2022/09/12 01:03:08;;;;;;;;;;;;;;;;;;5019380;28;1889;-74
2022/09/12 01:05:35;;;;;;;;;;;;;;;;;;5016792;28;1318;-74
2022/09/12 01:08:04;;;;;;;;;;;;;;;;;;5022516;28;1370;-75
2022/09/12 01:10:29;;;;;;;;;;;;;;;;;;5018449;28;1595;-74
2022/09/12 01:12:54;;;;;;;;;;;;;;;;;;5021387;28;1226;-75
2022/09/12 01:15:20;;;;;;;;;;;;;;;;;;5020806;28;1380;-75
2022/09/12 01:17:54;;;;;;;;;;;;;;;;;;5021096;28;1327;-75
2022/09/12 01:20:34;;;;;;;;;;;;;;;;;;5021538;28;1264;-75
2022/09/12 01:23:02;;;;;;;;;;;;;;;;;;5022212;28;1906;-75
2022/09/12 01:25:45;;;;;;;;;;;;;;;;;;5020516;28;1460;-75
2022/09/12 01:28:26;;;;;;;;;;;;;;;;;;5019207;28;1341;-76
2022/09/12 01:31:04;;;;;;;;;;;;;;;;;;5017638;28;1310;-76
2022/09/12 01:33:45;;;;;;;;;;;;;;;;;;5021553;28;1332;-76
2022/09/12 01:36:19;;;;;;;;;;;;;;;;;;5020320;28;1273;-76
2022/09/12 01:39:11;;;;;;;;;;;;;;;;;;5017976;28;1393;-76
2022/09/12 01:41:49;;;;;;;;;;;;;;;;;;5002684;28;1525;-76
2022/09/12 01:44:29;;;;;;;;;;;;;;;;;;5017670;28;1959;-75
2022/09/12 01:47:13;;;;;;;;;;;;;;;;;;5018157;28;1482;-75
2022/09/12 01:49:56;;;;;;;;;;;;;;;;;;5022007;28;1316;-75
2022/09/12 01:52:25;;;;;;;;;;;;;;;;;;5021251;28;1563;-75
2022/09/12 01:54:54;;;;;;;;;;;;;;;;;;5022116;28;1423;-75
2022/09/12 01:57:32;;;;;;;;;;;;;;;;;;5022319;28;1263;-74
2022/09/12 01:59:59;;;;;;;;;;;;;;;;;;5020802;28;1203;-74
2022/09/12 02:02:31;;;;;;;;;;;;;;;;;;5018110;28;1557;-74
2022/09/12 02:04:59;;;;;;;;;;;;;;;;;;5016694;28;1886;-75
2022/09/12 02:07:35;;;;;;;;;;;;;;;;;;5018724;28;1357;-75
2022/09/12 02:10:07;;;;;;;;;;;;;;;;;;5024312;28;1090;-76
2022/09/12 02:12:44;;;;;;;;;;;;;;;;;;5018062;28;1205;-76
2022/09/12 02:15:10;;;;;;;;;;;;;;;;;;5018430;28;1691;-76
2022/09/12 02:17:38;;;;;;;;;;;;;;;;;;5020273;28;1346;-76
2022/09/12 02:20:14;;;;;;;;;;;;;;;;;;5020751;28;1239;-76
2022/09/12 02:22:40;;;;;;;;;;;;;;;;;;5021110;28;1215;-76
2022/09/12 02:25:06;;;;;;;;;;;;;;;;;;5021077;28;1957;-76
2022/09/12 02:27:36;;;;;;;;;;;;;;;;;;5021374;28;1248;-76
2022/09/12 02:30:02;;;;;;;;;;;;;;;;;;5017703;28;1349;-76
2022/09/12 02:32:29;;;;;;;;;;;;;;;;;;5017154;28;1683;-76
2022/09/12 02:35:06;;;;;;;;;;;;;;;;;;5019605;28;1327;-76
2022/09/12 02:37:34;;;;;;;;;;;;;;;;;;5018932;28;1272;-76
2022/09/12 02:39:59;;;;;;;;;;;;;;;;;;5020432;28;1264;-76
2022/09/12 02:42:24;;;;;;;;;;;;;;;;;;5021435;28;1307;-73
2022/09/12 02:44:51;;;;;;;;;;;;;;;;;;5019191;28;1975;-73
2022/09/12 02:47:24;;;;;;;;;;;;;;;;;;5017979;28;1378;-73
2022/09/12 02:49:49;;;;;;;;;;;;;;;;;;5020348;28;1327;-73
2022/09/12 02:52:14;;;;;;;;;;;;;;;;;;5020618;28;1296;-72
2022/09/12 02:54:39;;;;;;;;;;;;;;;;;;5019796;28;1441;-73
2022/09/12 02:57:13;;;;;;;;;;;;;;;;;;5020796;28;1339;-73
2022/09/12 02:59:39;;;;;;;;;;;;;;;;;;5017574;28;1338;-73
2022/09/12 03:02:11;;;;;;;;;;;;;;;;;;5018529;28;1287;-73
2022/09/12 03:04:43;;;;;;;;;;;;;;;;;;5018893;28;1898;-74
2022/09/12 03:07:20;;;;;;;;;;;;;;;;;;5020667;28;1332;-73
2022/09/12 03:09:45;;;;;;;;;;;;;;;;;;5021029;28;1298;-74
2022/09/12 03:12:28;;;;;;;;;;;;;;;;;;5008754;28;1272;-74
2022/09/12 03:15:09;;;;;;;;;;;;;;;;;;5020623;28;1337;-74
2022/09/12 03:17:45;;;;;;;;;;;;;;;;;;5018221;28;1579;-74
2022/09/12 03:20:33;;;;;;;;;;;;;;;;;;5018841;28;1399;-73
2022/09/12 03:23:02;;;;;;;;;;;;;;;;;;5018700;28;1973;-75
2022/09/12 03:25:31;;;;;;;;;;;;;;;;;;5018755;28;1588;-75
2022/09/12 03:28:08;;;;;;;;;;;;;;;;;;5020397;28;1155;-75
2022/09/12 03:30:37;;;;;;;;;;;;;;;;;;5011869;28;1297;-74
2022/09/12 03:33:02;;;;;;;;;;;;;;;;;;5017772;28;1568;-74
2022/09/12 03:35:28;;;;;;;;;;;;;;;;;;5019488;28;1602;-74
2022/09/12 03:37:53;;;;;;;;;;;;;;;;;;5017837;28;1336;-74
2022/09/12 03:40:18;;;;;;;;;;;;;;;;;;5009071;28;1215;-74
2022/09/12 03:42:44;;;;;;;;;;;;;;;;;;5019792;28;1263;-74
2022/09/12 03:45:09;;;;;;;;;;;;;;;;;;5017255;28;1898;-76
2022/09/12 03:47:35;;;;;;;;;;;;;;;;;;5016765;28;1385;-75
2022/09/12 03:50:01;;;;;;;;;;;;;;;;;;5019877;28;1281;-75
2022/09/12 03:52:26;;;;;;;;;;;;;;;;;;5031556;22;2013;-65
2022/09/12 03:54:51;;;;;;;;;;;;;;;;;;5019967;28;1252;-65
2022/09/12 03:57:16;;;;;;;;;;;;;;;;;;5020684;28;1189;-65
2022/09/12 03:59:41;;;;;;;;;;;;;;;;;;5019931;28;1305;-65
2022/09/12 04:02:08;;;;;;;;;;;;;;;;;;5009624;28;1335;-65
2022/09/12 04:04:34;;;;;;;;;;;;;;;;;;4998916;28;1973;-65
2022/09/12 04:06:59;;;;;;;;;;;;;;;;;;4999718;28;1398;-65
2022/09/12 04:09:24;;;;;;;;;;;;;;;;;;5000903;28;1237;-65
2022/09/12 04:11:49;;;;;;;;;;;;;;;;;;4999488;28;1358;-65
2022/09/12 04:14:14;;;;;;;;;;;;;;;;;;4996953;28;1323;-65
2022/09/12 04:16:39;;;;;;;;;;;;;;;;;;5000706;28;1388;-65
2022/09/12 04:19:05;;;;;;;;;;;;;;;;;;5000660;28;1334;-65
2022/09/12 04:21:30;;;;;;;;;;;;;;;;;;4995338;28;1559;-65
2022/09/12 04:23:56;;;;;;;;;;;;;;;;;;4996444;28;1969;-65
2022/09/12 04:26:21;;;;;;;;;;;;;;;;;;4999828;28;1249;-65
2022/09/12 04:28:47;;;;;;;;;;;;;;;;;;4996442;28;1625;-64
2022/09/12 04:31:21;;;;;;;;;;;;;;;;;;5003374;28;1442;-65
2022/09/12 04:33:51;;;;;;;;;;;;;;;;;;5007659;28;1299;-64
2022/09/12 04:36:16;;;;;;;;;;;;;;;;;;4996253;28;1284;-65
2022/09/12 04:38:46;;;;;;;;;;;;;;;;;;5004329;28;1293;-65
2022/09/12 04:41:12;;;;;;;;;;;;;;;;;;5001365;28;1447;-65
2022/09/12 04:43:37;;;;;;;;;;;;;;;;;;4999667;28;1910;-65
2022/09/12 04:46:06;;;;;;;;;;;;;;;;;;5001570;28;1289;-65
2022/09/12 04:48:32;;;;;;;;;;;;;;;;;;5002718;28;1260;-64
2022/09/12 04:51:05;;;;;;;;;;;;;;;;;;4999351;28;1305;-65
2022/09/12 04:53:30;;;;;;;;;;;;;;;;;;5004466;28;1277;-65
2022/09/12 04:56:00;;;;;;;;;;;;;;;;;;4999772;28;1578;-65
2022/09/12 04:58:25;;;;;;;;;;;;;;;;;;5003539;28;1262;-65
2022/09/12 05:00:50;;;;;;;;;;;;;;;;;;5000444;28;1360;-65
2022/09/12 05:03:15;;;;;;;;;;;;;;;;;;5003341;28;2139;-65
2022/09/12 05:05:41;;;;;;;;;;;;;;;;;;5002168;28;1255;-64
2022/09/12 05:08:07;;;;;;;;;;;;;;;;;;4999820;28;1579;-64
2022/09/12 05:10:32;;;;;;;;;;;;;;;;;;5002190;28;1323;-65
2022/09/12 05:12:57;;;;;;;;;;;;;;;;;;5000314;28;1526;-65
2022/09/12 05:15:23;;;;;;;;;;;;;;;;;;5002572;28;1339;-65
2022/09/12 05:17:49;;;;;;;;;;;;;;;;;;5002926;28;1400;-65
2022/09/12 05:20:14;;;;;;;;;;;;;;;;;;5002965;28;1410;-62
2022/09/12 05:22:39;;;;;;;;;;;;;;;;;;5001651;28;1347;-65
2022/09/12 05:25:04;;;;;;;;;;;;;;;;;;4997888;28;1902;-64
2022/09/12 05:27:30;;;;;;;;;;;;;;;;;;4999616;28;1271;-63
2022/09/12 05:29:55;;;;;;;;;;;;;;;;;;5003327;28;1343;-63
2022/09/12 05:32:20;;;;;;;;;;;;;;;;;;5001091;28;1358;-62
2022/09/12 05:34:46;;;;;;;;;;;;;;;;;;4999658;28;1347;-63
2022/09/12 05:37:11;;;;;;;;;;;;;;;;;;4999461;28;1389;-64
2022/09/12 05:39:37;;;;;;;;;;;;;;;;;;5000795;28;1304;-64
2022/09/12 05:42:02;;;;;;;;;;;;;;;;;;5002837;28;1330;-65
2022/09/12 05:44:27;;;;;;;;;;;;;;;;;;5001168;28;1890;-64
2022/09/12 05:46:52;;;;;;;;;;;;;;;;;;5003300;28;1214;-65
2022/09/12 05:49:18;;;;;;;;;;;;;;;;;;5002002;28;1248;-64
2022/09/12 05:51:44;;;;;;;;;;;;;;;;;;4998869;28;1696;-64
2022/09/12 05:54:11;;;;;;;;;;;;;;;;;;5001741;28;1343;-64
2022/09/12 05:56:38;;;;;;;;;;;;;;;;;;5000937;28;1283;-65
2022/09/12 05:59:04;;;;;;;;;;;;;;;;;;4996055;28;1621;-64
2022/09/12 06:01:31;;;;;;;;;;;;;;;;;;4997142;28;1454;-64
2022/09/12 06:03:59;;;;;;;;;;;;;;;;;;5000663;28;1950;-64
2022/09/12 06:06:25;;;;;;;;;;;;;;;;;;4999838;28;1387;-64
2022/09/12 06:08:51;;;;;;;;;;;;;;;;;;5000174;28;1405;-65
2022/09/12 06:11:20;;;;;;;;;;;;;;;;;;5001781;28;1649;-64
2022/09/12 06:13:45;;;;;;;;;;;;;;;;;;5002997;28;1311;-64
2022/09/12 06:16:14;;;;;;;;;;;;;;;;;;5001166;28;1429;-62
2022/09/12 06:18:40;;;;;;;;;;;;;;;;;;5001743;28;1202;-65
2022/09/12 06:21:06;;;;;;;;;;;;;;;;;;4999156;28;1582;-66
2022/09/12 06:23:32;;;;;;;;;;;;;;;;;;5000878;28;1914;-65
2022/09/12 06:25:57;;;;;;;;;;;;;;;;;;4995607;28;1330;-64
2022/09/12 06:28:22;;;;;;;;;;;;;;;;;;5003786;28;1300;-65
2022/09/12 06:30:47;;;;;;;;;;;;;;;;;;4999690;28;1284;-64
2022/09/12 06:33:13;;;;;;;;;;;;;;;;;;5000327;28;1635;-64
2022/09/12 06:35:38;;;;;;;;;;;;;;;;;;4994403;28;1614;-65
2022/09/12 06:38:04;;;;;;;;;;;;;;;;;;4997854;28;1367;-65
2022/09/12 06:40:29;;;;;;;;;;;;;;;;;;5001677;28;1386;-65
2022/09/12 06:42:54;;;;;;;;;;;;;;;;;;4999660;28;1689;-64
2022/09/12 06:45:20;;;;;;;;;;;;;;;;;;5001253;28;1953;-64
2022/09/12 06:47:45;;;;;;;;;;;;;;;;;;5000124;28;1306;-63
2022/09/12 06:50:10;;;;;;;;;;;;;;;;;;4999803;28;1335;-63
2022/09/12 06:52:36;;;;;;;;;;;;;;;;;;4997101;28;1421;-66
2022/09/12 06:55:01;;;;;;;;;;;;;;;;;;4998594;28;1457;-66
2022/09/12 06:57:29;;;;;;;;;;;;;;;;;;4996844;28;1418;-67
2022/09/12 06:59:54;;;;;;;;;;;;;;;;;;4997374;28;1402;-65
2022/09/12 07:02:19;;;;;;;;;;;;;;;;;;4995360;28;1438;-64
2022/09/12 07:04:44;;;;;;;;;;;;;;;;;;5000836;28;1973;-64
2022/09/12 07:07:10;;;;;;;;;;;;;;;;;;4997634;28;1601;-65
2022/09/12 07:09:35;;;;;;;;;;;;;;;;;;4999099;28;1712;-66
2022/09/12 07:12:03;;;;;;;;;;;;;;;;;;5000960;28;1865;-65
2022/09/12 07:14:28;;;;;;;;;;;;;;;;;;4997889;28;1456;-66
2022/09/12 07:16:53;;;;;;;;;;;;;;;;;;5001981;28;1312;-66
2022/09/12 07:19:18;;;;;;;;;;;;;;;;;;5001445;28;1355;-67
2022/09/12 07:21:44;;;;;;;;;;;;;;;;;;4996858;28;1389;-67
2022/09/12 07:24:10;;;;;;;;;;;;;;;;;;4996100;28;1890;-66
2022/09/12 07:26:35;;;;;;;;;;;;;;;;;;5000078;28;1250;-66
2022/09/12 07:29:01;;;;;;;;;;;;;;;;;;4996017;28;1451;-66
2022/09/12 07:31:26;;;;;;;;;;;;;;;;;;5000755;28;1733;-65
2022/09/12 07:33:52;;;;;;;;;;;;;;;;;;5000428;28;1410;-65
2022/09/12 07:36:18;;;;;;;;;;;;;;;;;;4995892;28;1379;-66
2022/09/12 07:38:45;;;;;;;;;;;;;;;;;;4998113;28;1447;-64
2022/09/12 07:41:11;;;;;;;;;;;;;;;;;;4999327;28;1285;-66
2022/09/12 07:43:36;;;;;;;;;;;;;;;;;;5000972;28;1893;-66
2022/09/12 07:46:01;;;;;;;;;;;;;;;;;;5001084;28;1438;-66
2022/09/12 07:48:27;;;;;;;;;;;;;;;;;;4996375;28;1429;-64
2022/09/12 07:50:59;;;;;;;;;;;;;;;;;;4997333;28;1507;-64
2022/09/12 07:53:24;;;;;;;;;;;;;;;;;;4994379;28;1281;-66
2022/09/12 07:55:53;;;;;;;;;;;;;;;;;;4995918;28;1399;-66
2022/09/12 07:58:19;;;;;;;;;;;;;;;;;;4999921;28;1438;-66
2022/09/12 08:00:44;;;;;;;;;;;;;;;;;;4998924;28;1482;-66
2022/09/12 08:03:10;;;;;;;;;;;;;;;;;;4998013;28;1903;-66
2022/09/12 08:05:35;;;;;;;;;;;;;;;;;;5000815;28;1302;-65
2022/09/12 08:08:00;;;;;;;;;;;;;;;;;;5002069;28;1364;-65
2022/09/12 08:10:25;;;;;;;;;;;;;;;;;;4995734;28;1571;-66
2022/09/12 08:12:50;;;;;;;;;;;;;;;;;;4997497;28;1558;-67
2022/09/12 08:15:16;;;;;;;;;;;;;;;;;;4996270;28;1634;-66
2022/09/12 08:17:41;;;;;;;;;;;;;;;;;;4993865;28;1475;-64
2022/09/12 08:20:08;;;;;;;;;;;;;;;;;;4994771;28;1441;-65
2022/09/12 08:22:33;;;;;;;;;;;;;;;;;;4994209;28;1674;-64
2022/09/12 08:24:58;;;;;;;;;;;;;;;;;;4996377;28;1898;-64
2022/09/12 08:27:24;;;;;;;;;;;;;;;;;;5001145;28;1367;-66
2022/09/12 08:29:49;;;;;;;;;;;;;;;;;;4998614;28;1284;-65
2022/09/12 08:32:14;;;;;;;;;;;;;;;;;;4995840;28;1370;-65
2022/09/12 08:34:39;;;;;;;;;;;;;;;;;;5000391;28;1531;-65
2022/09/12 08:37:04;;;;;;;;;;;;;;;;;;5002171;28;1366;-65
2022/09/12 08:39:31;;;;;;;;;;;;;;;;;;5002916;28;1333;-65
2022/09/12 08:42:00;;;;;;;;;;;;;;;;;;5000920;28;1383;-65
2022/09/12 08:44:45;;;;;;;;;;;;;;;;;;4996627;28;1990;-66
2022/09/12 08:47:28;;;;;;;;;;;;;;;;;;4998248;28;1325;-66
2022/09/12 08:49:54;;;;;;;;;;;;;;;;;;5000406;28;1352;-66
2022/09/12 08:52:39;;;;;;;;;;;;;;;;;;5004117;28;1480;-65
2022/09/12 08:55:05;;;;;;;;;;;;;;;;;;4985583;28;1345;-65
2022/09/12 08:57:31;;;;;;;;;;;;;;;;;;4998472;28;1512;-66
2022/09/12 08:59:56;;;;;;;;;;;;;;;;;;4996798;28;1371;-65
2022/09/12 09:02:23;;;;;;;;;;;;;;;;;;4997037;28;1395;-66
2022/09/12 09:05:15;;;;;;;;;;;;;;;;;;4995893;28;1898;-64
2022/09/12 09:08:00;;;;;;;;;;;;;;;;;;4970518;28;1185;-65
2022/09/12 09:10:25;;;;;;;;;;;;;;;;;;4998797;28;1380;-65
2022/09/12 09:12:50;;;;;;;;;;;;;;;;;;4998412;28;1390;-65
2022/09/12 09:15:34;;;;;;;;;;;;;;;;;;4996036;28;1423;-64
2022/09/12 09:18:05;;;;;;;;;;;;;;;;;;4992787;28;1496;-64
2022/09/12 09:20:37;;;;;;;;;;;;;;;;;;4997193;28;1422;-64
2022/09/12 09:23:07;;;;;;;;;;;;;;;;;;4997206;28;1745;-64
2022/09/12 09:25:55;;;;;;;;;;;;;;;;;;5000927;28;1227;-64
2022/09/12 09:28:38;;;;;;;;;;;;;;;;;;5001458;28;1386;-63
2022/09/12 09:31:03;;;;;;;;;;;;;;;;;;5002732;28;1604;-64
2022/09/12 09:33:33;;;;;;;;;;;;;;;;;;5000901;28;1251;-64
2022/09/12 09:36:10;;;;;;;;;;;;;;;;;;5002386;28;1366;-64
2022/09/12 09:38:41;;;;;;;;;;;;;;;;;;4999426;28;1425;-64
2022/09/12 09:41:06;;;;;;;;;;;;;;;;;;4996885;28;1603;-64
2022/09/12 09:43:31;;;;;;;;;;;;;;;;;;5000674;28;1913;-64
2022/09/12 09:45:58;;;;;;;;;;;;;;;;;;4998265;28;1387;-64
2022/09/12 09:48:55;;;;;;;;;;;;;;;;;;5002974;28;1406;-63
2022/09/12 09:51:31;;;;;;;;;;;;;;;;;;4976895;28;1562;-63
2022/09/12 09:54:00;;;;;;;;;;;;;;;;;;5001980;28;1330;-64
2022/09/12 09:56:27;;;;;;;;;;;;;;;;;;5000841;28;1391;-64
2022/09/12 09:58:52;;;;;;;;;;;;;;;;;;5000552;28;1543;-63
2022/09/12 10:01:17;;;;;;;;;;;;;;;;;;5001345;28;1754;-63
2022/09/12 10:03:50;;;;;;;;;;;;;;;;;;4999330;28;1967;-63
2022/09/12 10:06:18;;;;;;;;;;;;;;;;;;5000045;28;1216;-63
2022/09/12 10:08:43;;;;;;;;;;;;;;;;;;5002221;28;1413;-63
2022/09/12 10:11:15;;;;;;;;;;;;;;;;;;5001446;28;1287;-63
2022/09/12 10:13:40;;;;;;;;;;;;;;;;;;4999494;28;1407;-63
2022/09/12 10:16:16;;;;;;;;;;;;;;;;;;4999938;28;1081;-63
2022/09/12 10:18:41;;;;;;;;;;;;;;;;;;5000444;28;1304;-63
2022/09/12 10:21:26;;;;;;;;;;;;;;;;;;5000362;28;1255;-63
2022/09/12 10:23:58;;;;;;;;;;;;;;;;;;5001012;28;1926;-63
2022/09/12 10:26:25;;;;;;;;;;;;;;;;;;4998894;28;1271;-63
2022/09/12 10:28:52;;;;;;;;;;;;;;;;;;4999235;28;1299;-63
2022/09/12 10:31:27;;;;;;;;;;;;;;;;;;5001427;28;1338;-63
2022/09/12 10:33:54;;;;;;;;;;;;;;;;;;5001228;28;1090;-64
2022/09/12 10:36:20;;;;;;;;;;;;;;;;;;5000702;28;1275;-61
2022/09/12 10:39:04;;;;;;;;;;;;;;;;;;4996644;28;1745;-61
2022/09/12 10:41:36;;;;;;;;;;;;;;;;;;4998550;28;1323;-63
2022/09/12 10:44:14;;;;;;;;;;;;;;;;;;4995555;28;1946;-63
2022/09/12 10:46:39;;;;;;;;;;;;;;;;;;5000151;28;1043;-63
2022/09/12 10:49:12;;;;;;;;;;;;;;;;;;4999570;28;1414;-63
2022/09/12 10:51:37;;;;;;;;;;;;;;;;;;4998499;28;1414;-63
2022/09/12 10:54:03;;;;;;;;;;;;;;;;;;4999291;28;1395;-63
2022/09/12 10:56:38;;;;;;;;;;;;;;;;;;4999821;28;1320;-63
2022/09/12 10:59:06;;;;;;;;;;;;;;;;;;5001426;28;1229;-63
2022/09/12 11:01:32;;;;;;;;;;;;;;;;;;5001776;28;1483;-63
2022/09/12 11:04:07;;;;;;;;;;;;;;;;;;4999314;28;1946;-63
2022/09/12 11:06:37;;;;;;;;;;;;;;;;;;4996650;28;1481;-63
2022/09/12 11:09:15;;;;;;;;;;;;;;;;;;4998795;28;1401;-63
2022/09/12 11:11:59;;;;;;;;;;;;;;;;;;4999379;28;1310;-63
2022/09/12 11:14:43;;;;;;;;;;;;;;;;;;4996802;28;1460;-63
2022/09/12 11:17:11;;;;;;;;;;;;;;;;;;4998333;28;1358;-63
2022/09/12 11:19:37;;;;;;;;;;;;;;;;;;4996083;28;1831;-63
2022/09/12 11:22:17;;;;;;;;;;;;;;;;;;5001820;28;1286;-63
2022/09/12 11:24:48;;;;;;;;;;;;;;;;;;4998903;28;1894;-63
2022/09/12 11:27:20;;;;;;;;;;;;;;;;;;5000340;28;1291;-63
2022/09/12 11:29:47;;;;;;;;;;;;;;;;;;4996065;28;1793;-63
2022/09/12 11:32:25;;;;;;;;;;;;;;;;;;4994968;28;1425;-64
2022/09/12 11:35:03;;;;;;;;;;;;;;;;;;4995465;28;1763;-63
2022/09/12 11:37:43;;;;;;;;;;;;;;;;;;4996481;28;1511;-64
2022/09/12 11:40:28;;;;;;;;;;;;;;;;;;5000033;28;1443;-63
2022/09/12 11:42:58;;;;;;;;;;;;;;;;;;4996065;28;1452;-64
2022/09/12 11:45:34;;;;;;;;;;;;;;;;;;4995255;28;1969;-63
2022/09/12 11:48:03;;;;;;;;;;;;;;;;;;4996630;28;1463;-64
2022/09/12 11:50:29;;;;;;;;;;;;;;;;;;4999528;28;1510;-64
2022/09/12 11:52:57;;;;;;;;;;;;;;;;;;4999692;28;1523;-63
2022/09/12 11:55:26;;;;;;;;;;;;;;;;;;4996052;28;1440;-63
2022/09/12 11:57:55;;;;;;;;;;;;;;;;;;5002773;28;1659;-63
2022/09/12 12:00:21;;;;;;;;;;;;;;;;;;4998156;28;1570;-64
2022/09/12 12:02:48;;;;;;;;;;;;;;;;;;5001730;28;1395;-65
2022/09/12 12:05:24;;;;;;;;;;;;;;;;;;4999963;28;1966;-65
2022/09/12 12:07:53;;;;;;;;;;;;;;;;;;4998734;28;1447;-65
2022/09/12 12:10:25;;;;;;;;;;;;;;;;;;4998483;28;1490;-65
2022/09/12 12:12:51;;;;;;;;;;;;;;;;;;4997069;28;1443;-64
2022/09/12 12:15:17;;;;;;;;;;;;;;;;;;4996611;28;1479;-64
2022/09/12 12:17:42;;;;;;;;;;;;;;;;;;4996965;28;1576;-62
2022/09/12 12:20:14;;;;;;;;;;;;;;;;;;5001755;28;1615;-64
2022/09/12 12:22:49;;;;;;;;;;;;;;;;;;4999417;28;1558;-63
2022/09/12 12:25:14;;;;;;;;;;;;;;;;;;4999458;28;1951;-63
2022/09/12 12:27:43;;;;;;;;;;;;;;;;;;4998384;28;1750;-63
2022/09/12 12:30:28;;;;;;;;;;;;;;;;;;4996191;28;1400;-64
2022/09/12 12:33:12;;;;;;;;;;;;;;;;;;4985539;28;1406;-63
2022/09/12 12:35:39;;;;;;;;;;;;;;;;;;4998537;28;1439;-63
2022/09/12 12:38:25;;;;;;;;;;;;;;;;;;5000091;28;1338;-63
2022/09/12 12:40:50;;;;;;;;;;;;;;;;;;4995479;28;1507;-65
2022/09/12 12:43:30;;;;;;;;;;;;;;;;;;4999371;28;1902;-64
2022/09/12 12:46:01;;;;;;;;;;;;;;;;;;4998013;28;1240;-63
2022/09/12 12:48:29;;;;;;;;;;;;;;;;;;4996764;28;1301;-64
2022/09/12 12:51:14;;;;;;;;;;;;;;;;;;5002489;28;1363;-63
2022/09/12 12:53:40;;;;;;;;;;;;;;;;;;5002133;28;1461;-64
2022/09/12 12:56:06;;;;;;;;;;;;;;;;;;4997044;28;1388;-64
2022/09/12 12:58:31;;;;;;;;;;;;;;;;;;5002604;28;1090;-64
2022/09/12 13:01:10;;;;;;;;;;;;;;;;;;5001802;28;1231;-65
2022/09/12 13:03:36;;;;;;;;;;;;;;;;;;5003147;28;1898;-64
2022/09/12 13:06:04;;;;;;;;;;;;;;;;;;5002330;28;1256;-64
2022/09/12 13:08:31;;;;;;;;;;;;;;;;;;5003707;28;1252;-65
2022/09/12 13:11:01;;;;;;;;;;;;;;;;;;5004051;28;1323;-64
2022/09/12 13:13:34;;;;;;;;;;;;;;;;;;5003633;28;1266;-64
2022/09/12 13:15:59;;;;;;;;;;;;;;;;;;4999057;28;1557;-64
2022/09/12 13:18:31;;;;;;;;;;;;;;;;;;5002692;28;1577;-64
2022/09/12 13:21:06;;;;;;;;;;;;;;;;;;5002776;28;1400;-65
2022/09/12 13:23:33;;;;;;;;;;;;;;;;;;4999280;28;1967;-65
2022/09/12 13:25:59;;;;;;;;;;;;;;;;;;4999232;28;1531;-65
2022/09/12 13:28:25;;;;;;;;;;;;;;;;;;5002277;28;1484;-64
2022/09/12 13:31:09;;;;;;;;;;;;;;;;;;5001148;28;1478;-65
2022/09/12 13:33:36;;;;;;;;;;;;;;;;;;5000481;28;1828;-64
2022/09/12 13:36:21;;;;;;;;;;;;;;;;;;4998098;28;1436;-65
2022/09/12 13:38:53;;;;;;;;;;;;;;;;;;5002630;28;1436;-65
2022/09/12 13:41:32;;;;;;;;;;;;;;;;;;5001026;28;1495;-65
2022/09/12 13:43:58;;;;;;;;;;;;;;;;;;4999454;28;1953;-65
2022/09/12 13:46:28;;;;;;;;;;;;;;;;;;4998814;28;1444;-65
2022/09/12 13:48:54;;;;;;;;;;;;;;;;;;5000085;28;1614;-65
2022/09/12 13:51:23;;;;;;;;;;;;;;;;;;4999578;28;1514;-65
2022/09/12 13:53:50;;;;;;;;;;;;;;;;;;4997670;28;1538;-63
2022/09/12 13:56:19;;;;;;;;;;;;;;;;;;5000867;28;1861;-65
2022/09/12 13:58:52;;;;;;;;;;;;;;;;;;4997343;28;1721;-65
2022/09/12 14:01:18;;;;;;;;;;;;;;;;;;5002145;28;1777;-65
2022/09/12 14:06:45;;;;;;;;;;;;;;;;;;5000453;28;1407;-65
2022/09/12 14:09:14;;;;;;;;;;;;;;;;;;4999832;28;1343;-65
2022/09/12 14:11:39;;;;;;;;;;;;;;;;;;5002883;28;1336;-65
2022/09/12 14:14:06;;;;;;;;;;;;;;;;;;5000732;28;1180;-65
2022/09/12 14:16:37;;;;;;;;;;;;;;;;;;4992145;28;1524;-65
2022/09/12 14:19:04;;;;;;;;;;;;;;;;;;5001541;28;1332;-64
2022/09/12 14:21:33;;;;;;;;;;;;;;;;;;4998981;28;1412;-65
2022/09/12 14:23:59;;;;;;;;;;;;;;;;;;5000913;28;1968;-65
2022/09/12 14:26:25;;;;;;;;;;;;;;;;;;5000526;28;1788;-65
2022/09/12 14:28:50;;;;;;;;;;;;;;;;;;5002388;28;1259;-65
2022/09/12 14:31:16;;;;;;;;;;;;;;;;;;5000030;28;1503;-65
2022/09/12 14:33:48;;;;;;;;;;;;;;;;;;5000757;28;1283;-65
2022/09/12 14:36:17;;;;;;;;;;;;;;;;;;4998578;28;1386;-65
2022/09/12 14:38:43;;;;;;;;;;;;;;;;;;4996792;28;1704;-65
2022/09/12 14:41:09;;;;;;;;;;;;;;;;;;4993801;28;1440;-65
2022/09/12 14:43:43;;;;;;;;;;;;;;;;;;5000204;28;1890;-66
2022/09/12 14:46:16;;;;;;;;;;;;;;;;;;4998408;28;1533;-66
2022/09/12 14:48:52;;;;;;;;;;;;;;;;;;5001643;28;1376;-66
2022/09/12 14:51:29;;;;;;;;;;;;;;;;;;4998053;28;1483;-66
2022/09/12 14:53:55;;;;;;;;;;;;;;;;;;4999252;28;1571;-66
2022/09/12 14:56:21;;;;;;;;;;;;;;;;;;5000068;28;1264;-65
2022/09/12 14:58:46;;;;;;;;;;;;;;;;;;5001648;28;1720;-66
2022/09/12 15:01:11;;;;;;;;;;;;;;;;;;5002102;28;1408;-65
2022/09/12 15:03:50;;;;;;;;;;;;;;;;;;5000339;28;1964;-66
2022/09/12 15:06:31;;;;;;;;;;;;;;;;;;4997569;28;1390;-65
2022/09/12 15:08:58;;;;;;;;;;;;;;;;;;4996753;28;1255;-65
2022/09/12 15:11:24;;;;;;;;;;;;;;;;;;5001935;28;1260;-66
2022/09/12 15:13:49;;;;;;;;;;;;;;;;;;4997681;28;1399;-65
2022/09/12 15:16:14;;;;;;;;;;;;;;;;;;4999974;28;1197;-65
2022/09/12 15:18:40;;;;;;;;;;;;;;;;;;5000853;28;1321;-62
2022/09/12 15:21:06;;;;;;;;;;;;;;;;;;4999659;28;1392;-63
2022/09/12 15:23:32;;;;;;;;;;;;;;;;;;4999322;28;1964;-64
2022/09/12 15:25:57;;;;;;;;;;;;;;;;;;4998913;28;1228;-65
2022/09/12 15:28:22;;;;;;;;;;;;;;;;;;5000343;28;1319;-65
2022/09/12 15:30:49;;;;;;;;;;;;;;;;;;5000727;28;1248;-65
2022/09/12 15:33:14;;;;;;;;;;;;;;;;;;4998833;28;1283;-65
2022/09/12 15:35:39;;;;;;;;;;;;;;;;;;4999143;28;1433;-65
2022/09/12 15:38:05;;;;;;;;;;;;;;;;;;4998693;28;1410;-65
2022/09/12 15:40:30;;;;;;;;;;;;;;;;;;5000144;28;1311;-65
2022/09/12 15:42:55;;;;;;;;;;;;;;;;;;5000431;28;1302;-65
2022/09/12 15:45:22;;;;;;;;;;;;;;;;;;4999759;28;1902;-65
2022/09/12 15:47:47;;;;;;;;;;;;;;;;;;4998954;28;1368;-65
2022/09/12 15:50:12;;;;;;;;;;;;;;;;;;4999258;28;1260;-65
2022/09/12 15:52:38;;;;;;;;;;;;;;;;;;5000045;28;1381;-65
2022/09/12 15:55:04;;;;;;;;;;;;;;;;;;4997979;28;1559;-65
2022/09/12 15:57:29;;;;;;;;;;;;;;;;;;4997919;28;1350;-65
2022/09/12 15:59:54;;;;;;;;;;;;;;;;;;4998380;28;1809;-65
2022/09/12 16:02:19;;;;;;;;;;;;;;;;;;4998925;28;1544;-65
2022/09/12 16:04:46;;;;;;;;;;;;;;;;;;5000738;28;1907;-66
2022/09/12 16:07:12;;;;;;;;;;;;;;;;;;4999204;28;1545;-66
2022/09/12 16:09:37;;;;;;;;;;;;;;;;;;5001461;28;1303;-66
2022/09/12 16:12:02;;;;;;;;;;;;;;;;;;5000240;28;1439;-66
2022/09/12 16:14:27;;;;;;;;;;;;;;;;;;4998966;28;1300;-66
2022/09/12 16:16:53;;;;;;;;;;;;;;;;;;4998432;28;1299;-66
2022/09/12 16:19:19;;;;;;;;;;;;;;;;;;5000955;28;1362;-66
2022/09/12 16:21:44;;;;;;;;;;;;;;;;;;4994220;28;1563;-66
2022/09/12 16:24:09;;;;;;;;;;;;;;;;;;4999126;28;1902;-66
2022/09/12 16:26:35;;;;;;;;;;;;;;;;;;4997574;28;1287;-66
2022/09/12 16:29:00;;;;;;;;;;;;;;;;;;4997950;28;1252;-66
2022/09/12 16:31:26;;;;;;;;;;;;;;;;;;4999712;28;1346;-67
2022/09/12 16:33:51;;;;;;;;;;;;;;;;;;4998940;28;1296;-66
2022/09/12 16:36:19;;;;;;;;;;;;;;;;;;4997196;28;1776;-67
2022/09/12 16:38:45;;;;;;;;;;;;;;;;;;4999095;28;1279;-66
2022/09/12 16:41:10;;;;;;;;;;;;;;;;;;4998837;28;1431;-64
2022/09/12 16:43:36;;;;;;;;;;;;;;;;;;4997628;28;1894;-64
2022/09/12 16:46:04;;;;;;;;;;;;;;;;;;4998595;28;1410;-64
2022/09/12 16:48:29;;;;;;;;;;;;;;;;;;4998503;28;1398;-64
2022/09/12 16:50:55;;;;;;;;;;;;;;;;;;4999017;28;1422;-64
2022/09/12 16:53:21;;;;;;;;;;;;;;;;;;4998752;28;1445;-64
2022/09/12 16:55:50;;;;;;;;;;;;;;;;;;4998028;28;1196;-66
2022/09/12 16:58:15;;;;;;;;;;;;;;;;;;4996137;28;1741;-64
2022/09/12 17:00:40;;;;;;;;;;;;;;;;;;4998978;28;1920;-65
2022/09/12 17:03:05;;;;;;;;;;;;;;;;;;4999706;28;1284;-66
2022/09/12 17:05:30;;;;;;;;;;;;;;;;;;4999770;28;1956;-65
2022/09/12 17:07:55;;;;;;;;;;;;;;;;;;4998202;28;1558;-66
2022/09/12 17:10:21;;;;;;;;;;;;;;;;;;4998968;28;1336;-65
2022/09/12 17:12:46;;;;;;;;;;;;;;;;;;4998178;28;1787;-65
2022/09/12 17:15:11;;;;;;;;;;;;;;;;;;4997785;28;1314;-65
2022/09/12 17:17:37;;;;;;;;;;;;;;;;;;4999304;28;1283;-65